Terminal Aerodrome Forecast
Issued by NWS

Home | Current Version | Previous Version | Text Only | Print | Product List | Glossary On
Versions: 1 2 3 4 5 6 7 8 9 10 11 12 13
314
FTUS46 KSEW 292338
TAFCLM
TAF
KCLM 292338Z 3000/3024 29014G20KT P6SM SCT050
     FM300700 29008KT P6SM SCT060=

USA.gov is the U.S. government's official web portal to all federal, state and local government web resources and services.